Wymondham, United Kingdom
Current Conditions -  °F | °C
As of 12:20 PM on Saturday 20 Dec 2014 (Local Time) from EGSH Reporting Station
Few Clouds Few Clouds  
Wind Chill: 39°   Ceiling: Unl
Heat Index: 46°   Visibility: 6mi
Dew Point: 39°   Wind: 20mph
Humidity: 76%   Direction: 270°W
Pressure: 30.15"   Gusts: NA
Location:  52.57°N, 1.11°E
Report Text: EGSH 201220Z 27017KT 9999 FEW036 08/04 Q1021 NOSIG
Loading
Personal Weather Stations






























Interactive Weather Map New forecast layout! Learn more

10-Day Weather Forecast

Advertisements
Track Severe Weather on mobile